createdAt,value
2022-08-03T00:01:45.638Z,3.75
2022-08-03T00:04:14.077Z,5.55
2022-08-03T00:06:42.532Z,6.07
2022-08-03T00:09:12.294Z,5.03
2022-08-03T00:11:40.815Z,4.25
2022-08-03T00:14:09.305Z,5.20
2022-08-03T00:16:37.680Z,3.42
2022-08-03T00:19:06.078Z,4.22
2022-08-03T00:21:34.631Z,6.57
2022-08-03T00:24:03.022Z,4.38
2022-08-03T00:26:32.917Z,3.33
2022-08-03T00:29:01.320Z,7.00
2022-08-03T00:31:44.956Z,5.72
2022-08-03T00:34:18.042Z,5.90
2022-08-03T00:37:04.587Z,4.43
2022-08-03T00:39:32.953Z,3.60
2022-08-03T00:42:05.498Z,4.63
2022-08-03T00:44:33.889Z,3.60
2022-08-03T00:47:02.230Z,3.42
2022-08-03T00:49:30.664Z,3.88
2022-08-03T00:51:59.083Z,4.07
2022-08-03T00:54:27.685Z,4.78
2022-08-03T00:57:00.159Z,3.83
2022-08-03T00:59:31.587Z,5.20
2022-08-03T01:01:59.994Z,3.80
2022-08-03T01:04:28.463Z,3.17
2022-08-03T01:07:00.458Z,4.20
2022-08-03T01:09:31.161Z,4.38
2022-08-03T01:12:03.015Z,3.30
2022-08-03T01:14:35.816Z,3.08
2022-08-03T01:17:07.094Z,3.72
2022-08-03T01:19:48.681Z,4.70
2022-08-03T01:22:25.128Z,4.47
2022-08-03T01:24:59.503Z,4.20
2022-08-03T01:27:31.225Z,4.43
2022-08-03T01:30:03.445Z,5.72
2022-08-03T01:32:58.315Z,2.95
2022-08-03T01:35:38.863Z,5.10
2022-08-03T01:38:09.107Z,3.47
2022-08-03T01:40:38.605Z,3.35
2022-08-03T01:43:08.363Z,3.92
2022-08-03T01:45:38.780Z,5.32
2022-08-03T01:48:09.386Z,4.07
2022-08-03T01:50:38.268Z,3.63
2022-08-03T01:53:07.869Z,4.10
2022-08-03T01:55:36.675Z,4.93
2022-08-03T01:58:07.043Z,3.53
2022-08-03T02:00:37.436Z,4.13
2022-08-03T02:03:08.461Z,4.85
2022-08-03T02:05:37.527Z,4.30
2022-08-03T02:08:07.005Z,3.47
2022-08-03T02:10:39.718Z,5.82
2022-08-03T02:13:09.363Z,3.47
2022-08-03T02:15:38.764Z,3.30
2022-08-03T02:18:09.725Z,4.80
2022-08-03T02:20:39.072Z,4.50
2022-08-03T02:23:07.734Z,6.10
2022-08-03T02:25:37.354Z,3.05
2022-08-03T02:28:08.819Z,4.25
2022-08-03T02:30:39.221Z,5.32
2022-08-03T02:33:10.981Z,6.75
2022-08-03T02:35:41.594Z,5.70
2022-08-03T02:38:11.977Z,4.88
2022-08-03T02:40:41.721Z,4.05
2022-08-03T02:43:11.129Z,7.18
2022-08-03T02:45:45.601Z,3.83
2022-08-03T02:48:18.934Z,3.88
2022-08-03T02:50:48.652Z,3.53
2022-08-03T02:53:18.810Z,5.15
2022-08-03T02:55:48.993Z,4.28
2022-08-03T02:58:19.454Z,4.20
2022-08-03T03:00:48.118Z,5.28
2022-08-03T03:03:17.912Z,5.85
2022-08-03T03:05:53.596Z,5.68
2022-08-03T03:08:25.932Z,4.68
2022-08-03T03:10:58.586Z,5.22
2022-08-03T03:13:27.358Z,4.82
2022-08-03T03:15:56.586Z,4.25
2022-08-03T03:18:26.996Z,8.90
2022-08-03T03:20:55.922Z,4.55
2022-08-03T03:23:25.233Z,5.68
2022-08-03T03:25:54.783Z,5.80
2022-08-03T03:28:23.519Z,4.05
2022-08-03T03:30:53.459Z,3.80
2022-08-03T03:33:22.029Z,7.50
2022-08-03T03:35:51.854Z,4.65
2022-08-03T03:38:20.715Z,5.10
2022-08-03T03:40:49.370Z,4.22
2022-08-03T03:43:18.544Z,6.60
2022-08-03T03:45:47.981Z,5.07
2022-08-03T03:48:16.524Z,5.35
2022-08-03T03:50:45.420Z,7.90
2022-08-03T03:53:16.348Z,5.00
2022-08-03T03:56:01.657Z,5.32
2022-08-03T03:58:31.561Z,4.45
2022-08-03T04:01:00.048Z,6.75
2022-08-03T04:03:28.513Z,4.78
2022-08-03T04:06:14.497Z,6.80
2022-08-03T04:09:13.391Z,8.10
2022-08-03T04:11:43.451Z,7.25
2022-08-03T04:14:13.739Z,8.25
2022-08-03T04:16:44.055Z,5.28
2022-08-03T04:19:13.762Z,6.13
2022-08-03T04:21:43.257Z,6.70
2022-08-03T04:24:13.692Z,6.63
2022-08-03T04:26:43.536Z,7.00
2022-08-03T04:29:12.818Z,7.05
2022-08-03T04:31:41.886Z,5.43
2022-08-03T04:34:10.337Z,5.68
2022-08-03T04:36:40.233Z,4.97
2022-08-03T04:39:10.025Z,7.28
2022-08-03T04:42:04.289Z,6.35
2022-08-03T04:44:29.801Z,7.65
2022-08-03T04:46:58.612Z,6.00
2022-08-03T04:49:27.348Z,6.75
2022-08-03T04:51:55.795Z,6.65
2022-08-03T04:54:24.177Z,4.82
2022-08-03T04:56:53.960Z,5.68
2022-08-03T04:59:22.304Z,7.22
2022-08-03T05:01:50.756Z,6.28
2022-08-03T05:04:20.535Z,6.45
2022-08-03T05:06:55.167Z,8.02
2022-08-03T05:09:50.783Z,5.25
2022-08-03T05:12:14.345Z,8.63
2022-08-03T05:14:43.049Z,5.13
2022-08-03T05:17:11.646Z,6.57
2022-08-03T05:19:40.022Z,5.60
2022-08-03T05:22:08.417Z,6.45
2022-08-03T05:24:36.753Z,7.25
2022-08-03T05:27:05.481Z,8.80
2022-08-03T05:29:35.197Z,5.43
2022-08-03T05:32:08.001Z,5.63
2022-08-03T05:34:36.765Z,7.80
2022-08-03T05:37:05.441Z,5.40
2022-08-03T05:39:33.771Z,6.32
2022-08-03T05:42:03.761Z,5.38
2022-08-03T05:44:32.216Z,7.20
2022-08-03T05:47:01.963Z,10.00
2022-08-03T05:49:30.391Z,5.55
2022-08-03T05:52:14.179Z,5.07
2022-08-03T05:54:55.997Z,5.57
2022-08-03T05:57:25.449Z,5.43
2022-08-03T05:59:54.706Z,6.25
2022-08-03T06:02:28.317Z,5.32
2022-08-03T06:04:56.677Z,7.13
2022-08-03T06:07:25.276Z,6.63
2022-08-03T06:09:56.636Z,6.30
2022-08-03T06:12:42.201Z,5.75
2022-08-03T06:15:11.726Z,7.72
2022-08-03T06:17:48.040Z,4.78
2022-08-03T06:20:18.145Z,6.65
2022-08-03T06:22:51.320Z,7.93
2022-08-03T06:25:28.908Z,5.47
2022-08-03T06:27:57.288Z,5.65
2022-08-03T06:30:25.746Z,6.45
2022-08-03T06:32:55.501Z,5.97
2022-08-03T06:35:24.013Z,5.13
2022-08-03T06:37:53.337Z,5.13
2022-08-03T06:40:28.545Z,5.95
2022-08-03T06:42:57.181Z,7.57
2022-08-03T06:45:25.832Z,4.88
2022-08-03T06:48:05.377Z,6.65
2022-08-03T06:50:33.820Z,6.05
2022-08-03T06:53:02.311Z,4.43
2022-08-03T06:55:30.717Z,7.70
2022-08-03T06:57:59.827Z,6.68
2022-08-03T07:00:31.902Z,8.40
2022-08-03T07:03:00.323Z,6.72
2022-08-03T07:05:30.641Z,6.45
2022-08-03T07:07:59.268Z,5.80
2022-08-03T07:10:27.757Z,5.35
2022-08-03T07:12:56.986Z,8.23
2022-08-03T07:15:54.265Z,8.23
2022-08-03T07:18:13.918Z,6.65
2022-08-03T07:20:43.704Z,7.38
2022-08-03T07:23:18.816Z,5.18
2022-08-03T07:25:48.048Z,7.00
2022-08-03T07:28:16.428Z,5.93
2022-08-03T07:30:44.810Z,5.35
2022-08-03T07:33:13.281Z,5.97
2022-08-03T07:35:41.704Z,8.32
2022-08-03T07:38:11.439Z,5.90
2022-08-03T07:40:44.428Z,6.63
2022-08-03T07:43:14.476Z,3.20
2022-08-03T07:45:42.873Z,5.45
2022-08-03T07:48:12.594Z,5.40
2022-08-03T07:50:41.316Z,5.68
2022-08-03T07:53:11.039Z,4.13
2022-08-03T07:55:39.391Z,3.88
2022-08-03T07:58:09.750Z,6.13
2022-08-03T08:00:38.420Z,4.57
2022-08-03T08:03:06.832Z,5.38
2022-08-03T08:05:35.608Z,5.65
2022-08-03T08:08:04.275Z,4.60
2022-08-03T08:10:34.062Z,6.90
2022-08-03T08:13:02.869Z,7.43
2022-08-03T08:15:32.773Z,3.55
2022-08-03T08:18:02.563Z,7.00
2022-08-03T08:20:32.953Z,8.32
2022-08-03T08:23:19.959Z,5.93
2022-08-03T08:25:54.160Z,6.32
2022-08-03T08:28:32.448Z,7.70
2022-08-03T08:31:01.824Z,7.00
2022-08-03T08:33:47.856Z,11.02
2022-08-03T08:36:18.591Z,6.30
2022-08-03T08:38:46.996Z,4.80
2022-08-03T08:41:16.997Z,5.93
2022-08-03T08:43:45.412Z,5.22
2022-08-03T08:46:23.515Z,6.90
2022-08-03T08:48:53.069Z,5.03
2022-08-03T08:51:22.397Z,7.88
2022-08-03T08:53:53.827Z,8.75
2022-08-03T08:56:25.456Z,9.02
2022-08-03T08:58:54.831Z,11.07
2022-08-03T09:01:23.311Z,9.40
2022-08-03T09:03:53.454Z,9.73
2022-08-03T09:06:22.346Z,10.07
2022-08-03T09:08:50.824Z,7.90
2022-08-03T09:12:00.355Z,10.65
2022-08-03T09:14:39.248Z,10.38
2022-08-03T09:17:02.684Z,8.10
2022-08-03T09:19:31.227Z,9.75
2022-08-03T09:22:09.492Z,7.57
2022-08-03T09:24:41.555Z,9.48
2022-08-03T09:27:13.833Z,7.75
2022-08-03T09:29:43.213Z,11.95
2022-08-03T09:32:12.672Z,7.97
2022-08-03T09:34:41.224Z,9.05
2022-08-03T09:37:15.034Z,8.85
2022-08-03T09:39:43.622Z,8.57
2022-08-03T09:42:15.431Z,5.50
2022-08-03T09:44:44.921Z,5.97
2022-08-03T09:47:13.780Z,4.70
2022-08-03T09:49:43.060Z,6.32
2022-08-03T09:52:39.240Z,5.50
2022-08-03T09:55:04.636Z,8.57
2022-08-03T09:57:54.396Z,7.63
2022-08-03T10:00:22.910Z,6.82
2022-08-03T10:02:51.295Z,2.80
2022-08-03T10:05:33.124Z,7.25
2022-08-03T10:08:01.503Z,5.28
2022-08-03T10:10:45.397Z,5.38
2022-08-03T10:13:15.564Z,4.90
2022-08-03T10:16:21.153Z,2.58
2022-08-03T10:18:32.334Z,6.75
2022-08-03T10:21:04.368Z,5.07
2022-08-03T10:23:35.849Z,5.03
2022-08-03T10:26:05.020Z,3.28
2022-08-03T10:28:39.259Z,2.13
2022-08-03T10:31:10.199Z,2.22
2022-08-03T10:33:52.044Z,3.45
2022-08-03T10:36:22.120Z,5.57
2022-08-03T10:38:52.693Z,5.55
2022-08-03T10:41:21.940Z,3.20
2022-08-03T10:43:52.842Z,4.47
2022-08-03T10:46:21.476Z,4.30
2022-08-03T10:48:50.773Z,3.22
2022-08-03T10:51:19.175Z,3.33
2022-08-03T10:53:54.346Z,2.70
2022-08-03T10:57:06.311Z,5.72
2022-08-03T11:00:05.594Z,3.67
2022-08-03T11:02:52.610Z,2.50
2022-08-03T11:05:27.869Z,5.80
2022-08-03T11:08:11.093Z,4.10
2022-08-03T11:10:39.607Z,3.08
2022-08-03T11:13:08.960Z,3.00
2022-08-03T11:15:38.930Z,3.25
2022-08-03T11:18:11.543Z,4.85
2022-08-03T11:20:46.894Z,3.00
2022-08-03T11:23:15.715Z,2.13
2022-08-03T11:26:02.567Z,3.55
2022-08-03T11:28:30.948Z,3.53
2022-08-03T11:31:48.523Z,6.18
2022-08-03T11:34:16.182Z,3.75
2022-08-03T11:37:02.960Z,4.05
2022-08-03T11:39:40.356Z,3.65
2022-08-03T11:42:23.592Z,4.90
2022-08-03T11:44:52.308Z,3.25
2022-08-03T11:47:22.653Z,5.25
2022-08-03T11:49:52.359Z,3.47
2022-08-03T11:52:26.947Z,3.40
2022-08-03T11:54:57.534Z,2.42
2022-08-03T11:59:16.499Z,4.43
2022-08-03T12:00:27.099Z,3.10
2022-08-03T12:03:05.268Z,3.55
2022-08-03T12:05:41.143Z,3.97
2022-08-03T12:08:10.674Z,2.67
2022-08-03T12:10:40.264Z,5.15
2022-08-03T12:14:44.926Z,3.97
2022-08-03T12:15:59.447Z,4.55
2022-08-03T12:18:29.634Z,4.40
2022-08-03T12:21:06.302Z,2.42
2022-08-03T12:23:37.856Z,5.78
2022-08-03T12:26:08.262Z,6.13
2022-08-03T12:28:38.326Z,3.63
2022-08-03T12:31:09.600Z,2.95
2022-08-03T12:33:53.488Z,3.28
2022-08-03T12:36:23.772Z,4.63
2022-08-03T12:38:57.020Z,5.60
2022-08-03T12:41:30.297Z,4.43
2022-08-03T12:43:59.482Z,2.83
2022-08-03T12:46:32.303Z,3.72
2022-08-03T12:49:05.929Z,3.65
2022-08-03T12:51:36.900Z,5.03
2022-08-03T12:54:06.316Z,3.47
2022-08-03T12:56:35.103Z,3.47
2022-08-03T12:59:03.987Z,3.88
2022-08-03T13:01:54.884Z,3.75
2022-08-03T13:04:33.626Z,4.28
2022-08-03T13:07:04.717Z,4.85
2022-08-03T13:09:43.100Z,4.55
2022-08-03T13:12:12.532Z,5.47
2022-08-03T13:14:41.816Z,5.38
2022-08-03T13:17:11.015Z,3.53
2022-08-03T13:19:40.163Z,6.03
2022-08-03T13:22:16.886Z,2.88
2022-08-03T13:24:49.217Z,3.03
2022-08-03T13:27:59.436Z,4.50
2022-08-03T13:30:06.348Z,3.92
2022-08-03T13:32:35.075Z,3.17
2022-08-03T13:35:03.885Z,3.08
2022-08-03T13:37:33.819Z,2.42
2022-08-03T13:40:04.510Z,4.82
2022-08-03T13:42:34.531Z,3.17
2022-08-03T13:45:03.877Z,3.00
2022-08-03T13:47:32.365Z,3.13
2022-08-03T13:50:02.810Z,3.33
2022-08-03T13:52:34.158Z,2.70
2022-08-03T13:55:02.837Z,3.70
2022-08-03T13:58:02.350Z,3.95
2022-08-03T14:00:28.169Z,2.80
2022-08-03T14:03:03.857Z,2.55
2022-08-03T14:05:32.852Z,2.55
2022-08-03T14:08:04.920Z,3.78
2022-08-03T14:10:33.755Z,2.75
2022-08-03T14:13:02.270Z,4.30
2022-08-03T14:15:30.669Z,4.97
2022-08-03T14:17:59.220Z,5.90
2022-08-03T14:20:38.496Z,4.53
2022-08-03T14:23:09.516Z,3.90
2022-08-03T14:25:44.455Z,2.40
2022-08-03T14:28:22.650Z,2.70
2022-08-03T14:30:51.752Z,3.33
2022-08-03T14:33:20.228Z,3.13
2022-08-03T14:35:48.621Z,2.35
2022-08-03T14:38:18.582Z,2.47
2022-08-03T14:40:47.003Z,3.38
2022-08-03T14:43:16.565Z,5.25
2022-08-03T14:45:44.951Z,2.75
2022-08-03T14:50:29.394Z,3.88
2022-08-03T14:51:02.365Z,1.63
2022-08-03T14:53:32.165Z,2.38
2022-08-03T14:56:00.581Z,3.20
2022-08-03T14:58:29.018Z,2.65
2022-08-03T15:00:57.733Z,2.85
2022-08-03T15:03:26.812Z,3.83
2022-08-03T15:05:56.641Z,2.58
2022-08-03T15:08:26.100Z,2.63
2022-08-03T15:10:56.203Z,1.35
2022-08-03T15:13:25.403Z,3.15
2022-08-03T15:15:53.866Z,3.25
2022-08-03T15:18:22.418Z,3.28
2022-08-03T15:20:51.031Z,1.42
2022-08-03T15:23:19.932Z,2.15
2022-08-03T15:26:28.152Z,2.42
2022-08-03T15:28:38.278Z,2.72
2022-08-03T15:31:07.504Z,1.98
2022-08-03T15:33:35.913Z,1.83
2022-08-03T15:36:06.733Z,1.92
2022-08-03T15:38:35.109Z,2.70
2022-08-03T15:41:03.681Z,1.45
2022-08-03T15:43:32.348Z,3.10
2022-08-03T15:46:28.207Z,2.40
2022-08-03T15:48:51.772Z,3.00
2022-08-03T15:51:20.215Z,2.22
2022-08-03T15:53:48.601Z,1.52
2022-08-03T15:56:18.894Z,3.55
2022-08-03T15:59:03.204Z,3.63
2022-08-03T16:01:37.776Z,1.75
2022-08-03T16:04:06.338Z,3.55
2022-08-03T16:06:36.299Z,4.35
2022-08-03T16:09:24.325Z,3.85
2022-08-03T16:11:55.765Z,2.70
2022-08-03T16:14:32.361Z,2.65
2022-08-03T16:17:05.496Z,2.38
2022-08-03T16:19:34.088Z,2.83
2022-08-03T16:22:04.124Z,2.17
2022-08-03T16:24:32.896Z,4.65
2022-08-03T16:27:01.671Z,1.55
2022-08-03T16:29:30.507Z,2.10
2022-08-03T16:31:59.015Z,2.58
2022-08-03T16:34:28.740Z,3.25
2022-08-03T16:36:57.161Z,2.15
2022-08-03T16:39:25.589Z,3.38
2022-08-03T16:42:01.082Z,2.55
2022-08-03T16:44:31.572Z,2.30
2022-08-03T16:47:00.069Z,3.50
2022-08-03T16:49:54.245Z,3.33
2022-08-03T16:52:18.422Z,3.30
2022-08-03T16:54:50.541Z,3.10
2022-08-03T16:57:59.364Z,3.33
2022-08-03T17:00:10.378Z,3.60
2022-08-03T17:02:39.209Z,2.53
2022-08-03T17:05:12.899Z,2.47
2022-08-03T17:07:42.357Z,4.82
2022-08-03T17:10:15.296Z,4.32
2022-08-03T17:12:50.806Z,5.20
2022-08-03T17:15:19.311Z,3.67
2022-08-03T17:18:09.132Z,2.47
2022-08-03T17:20:51.200Z,4.43
2022-08-03T17:23:35.383Z,2.72
2022-08-03T17:26:07.586Z,3.47
2022-08-03T17:28:52.008Z,6.18
2022-08-03T17:31:31.843Z,3.53
2022-08-03T17:34:01.823Z,3.35
2022-08-03T17:39:31.199Z,3.85
2022-08-03T17:44:58.500Z,6.13
2022-08-03T17:47:41.785Z,4.20
2022-08-03T17:50:25.404Z,4.35
2022-08-03T17:52:58.634Z,5.00
2022-08-03T17:55:55.732Z,5.75
2022-08-03T17:58:22.830Z,6.50
2022-08-03T18:01:58.184Z,8.10
2022-08-03T18:04:10.874Z,5.78
2022-08-03T18:06:56.361Z,4.05
2022-08-03T18:10:04.288Z,5.55
2022-08-03T18:12:17.384Z,4.63
2022-08-03T18:14:57.773Z,4.82
2022-08-03T18:17:55.520Z,3.45
2022-08-03T18:20:31.237Z,4.38
2022-08-03T18:23:04.981Z,5.82
2022-08-03T18:25:45.181Z,4.20
2022-08-03T18:28:15.337Z,3.13
2022-08-03T18:30:54.326Z,4.30
2022-08-03T18:34:19.156Z,5.18
2022-08-03T18:36:18.074Z,5.03
2022-08-03T18:38:53.932Z,5.57
2022-08-03T18:41:32.886Z,3.13
2022-08-03T18:44:08.566Z,4.68
2022-08-03T18:46:55.637Z,7.38
2022-08-03T18:49:29.445Z,3.25
2022-08-03T18:52:02.160Z,6.07
2022-08-03T18:54:58.971Z,5.68
2022-08-03T18:57:30.209Z,5.45
2022-08-03T19:00:05.260Z,4.90
2022-08-03T19:02:41.922Z,4.03
2022-08-03T19:05:18.396Z,6.68
2022-08-03T19:07:58.421Z,6.88
2022-08-03T19:10:31.452Z,5.97
2022-08-03T19:13:05.119Z,5.95
2022-08-03T19:15:50.982Z,6.32
2022-08-03T19:18:20.145Z,4.95
2022-08-03T19:20:51.582Z,3.35
2022-08-03T19:23:25.102Z,5.78
2022-08-03T19:25:53.779Z,9.30
2022-08-03T19:28:29.776Z,6.85
2022-08-03T19:31:02.623Z,5.43
2022-08-03T19:33:55.966Z,5.93
2022-08-03T19:36:27.481Z,5.00
2022-08-03T19:38:57.047Z,4.57
2022-08-03T19:41:26.378Z,7.07
2022-08-03T19:44:04.455Z,4.80
2022-08-03T19:46:35.862Z,9.38
2022-08-03T19:49:15.469Z,9.00
2022-08-03T19:52:02.453Z,8.43
2022-08-03T19:54:39.634Z,3.95
2022-08-03T19:57:17.836Z,5.35
2022-08-03T19:59:50.646Z,6.03
2022-08-03T20:02:27.310Z,6.53
2022-08-03T20:04:57.223Z,7.93
2022-08-03T20:07:26.279Z,7.80
2022-08-03T20:09:56.580Z,10.63
2022-08-03T20:12:28.276Z,6.80
2022-08-03T20:14:59.234Z,5.18
2022-08-03T20:17:54.111Z,4.85
2022-08-03T20:20:20.299Z,6.60
2022-08-03T20:22:53.023Z,5.15
2022-08-03T20:25:38.068Z,6.72
2022-08-03T20:28:13.801Z,7.18
2022-08-03T20:30:47.124Z,5.82
2022-08-03T20:33:18.787Z,6.13
2022-08-03T20:35:49.354Z,8.23
2022-08-03T20:38:18.483Z,7.53
2022-08-03T20:40:48.267Z,7.95
2022-08-03T20:43:16.696Z,3.95
2022-08-03T20:46:01.244Z,8.20
2022-08-03T20:48:38.727Z,6.85
2022-08-03T20:51:19.757Z,7.95
2022-08-03T20:54:00.410Z,6.80
2022-08-03T20:56:31.197Z,8.02
2022-08-03T20:59:02.958Z,7.65
2022-08-03T21:01:36.316Z,7.53
2022-08-03T21:04:06.780Z,7.30
2022-08-03T21:06:38.306Z,8.40
2022-08-03T21:09:08.762Z,7.28
2022-08-03T21:11:42.137Z,5.45
2022-08-03T21:13:04.492Z,3.70
2022-08-03T21:14:15.030Z,8.98
2022-08-03T21:16:46.458Z,8.32
2022-08-03T21:19:15.168Z,7.13
2022-08-03T21:21:46.461Z,6.13
2022-08-03T21:24:15.358Z,5.05
2022-08-03T21:26:44.673Z,5.30
2022-08-03T21:29:14.254Z,7.88
2022-08-03T21:31:42.828Z,8.40
2022-08-03T21:34:12.801Z,9.35
2022-08-03T21:36:41.402Z,8.48
2022-08-03T21:39:10.867Z,6.03
2022-08-03T21:41:40.076Z,10.23
2022-08-03T21:44:09.316Z,5.20
2022-08-03T21:46:38.838Z,5.30
2022-08-03T21:50:07.263Z,8.13
2022-08-03T21:51:59.929Z,8.07
2022-08-03T21:54:33.765Z,10.43
2022-08-03T21:57:04.561Z,6.38
2022-08-03T21:59:34.849Z,6.68
2022-08-03T22:02:03.780Z,7.88
2022-08-03T22:04:53.510Z,6.03
2022-08-03T22:07:24.022Z,9.38
2022-08-03T22:09:53.358Z,10.77
2022-08-03T22:12:25.336Z,10.35
2022-08-03T22:15:01.268Z,6.22
2022-08-03T22:17:54.849Z,6.32
2022-08-03T22:20:19.396Z,6.38
2022-08-03T22:22:55.324Z,7.55
2022-08-03T22:25:25.620Z,7.50
2022-08-03T22:27:54.426Z,5.72
2022-08-03T22:30:22.948Z,5.85
2022-08-03T22:32:51.782Z,8.23
2022-08-03T22:35:20.327Z,6.55
2022-08-03T22:37:53.366Z,7.32
2022-08-03T22:40:21.802Z,7.13
2022-08-03T22:42:52.506Z,5.13
2022-08-03T22:46:07.301Z,5.97
2022-08-03T22:48:09.972Z,4.88
2022-08-03T22:50:38.851Z,5.28
2022-08-03T22:53:08.638Z,6.45
2022-08-03T22:55:37.522Z,6.28
2022-08-03T22:58:05.889Z,5.82
2022-08-03T23:00:34.363Z,5.97
2022-08-03T23:03:03.828Z,5.35
2022-08-03T23:06:00.649Z,5.22
2022-08-03T23:08:25.325Z,4.75
2022-08-03T23:10:54.105Z,7.45
2022-08-03T23:13:25.916Z,5.85
2022-08-03T23:15:58.725Z,3.53
2022-08-03T23:18:34.103Z,3.28
2022-08-03T23:21:11.054Z,6.53
2022-08-03T23:23:44.592Z,6.00
2022-08-03T23:26:14.063Z,4.18
2022-08-03T23:28:43.408Z,8.95
2022-08-03T23:31:12.024Z,7.85
2022-08-03T23:33:40.828Z,6.07
2022-08-03T23:36:31.023Z,5.30
2022-08-03T23:38:59.169Z,5.45
2022-08-03T23:41:27.594Z,7.53
2022-08-03T23:43:56.317Z,8.45
2022-08-03T23:46:25.322Z,5.32
2022-08-03T23:48:56.549Z,6.05
2022-08-03T23:51:29.113Z,3.88
2022-08-03T23:54:03.052Z,4.63
2022-08-03T23:56:36.047Z,8.52
2022-08-03T23:59:08.878Z,6.82
